De Kalb, MO (64440)

4:55 PM CDT on June 24, 2017 (GMT -0500)
South Side | | Change Station

Elev 814 ft 39.71 °N, 94.91 °W | Updated 33 seconds ago

Clear
Clear
82.6 °F
Feels Like 81 °F
N
7.0
Wind Variable Wind from WNW

Today
High -- | Low -- °F
--% Chance of Precip.
Yesterday
High -- | Low -- °F
Precip. -- in
Pressure 30.17 in
Visibility 10.0 miles
Clouds Clear
Heat Index 81 °F
Dew Point 48 °F
Humidity 30%
Rainfall 0.00 in
Snow Depth Not available.
5:53 AM 8:51 PM
New Moon, 1% visible
METAR KSTJ 242053Z 30012G18KT 10SM CLR 27/07 A3019 RMK AO2 SLP217 T02670067 58014
Pressure 30.17 in
Visibility 10.0 miles
Clouds Clear
Heat Index 81 °F
Dew Point 48 °F
Humidity 30%
Rainfall 0.00 in
Snow Depth Not available.
5:53 AM 8:51 PM
New Moon, 1% visible
METAR KSTJ 242053Z 30012G18KT 10SM CLR 27/07 A3019 RMK AO2 SLP217 T02670067 58014

Get Severe Weather Alerts

Thanks for signing up!

Be on the lookout for a verification email in your inbox.

You'll start receiving the daily forecast at 6 AM.

×

10-Day Weather Forecast

Almanac

Astronomy

Jun. 24, 2017 Rise Set
Actual Time
Civil Twilight
Nautical Twilight
Astronomical Twilight
Moon
Length of Visible Light
Length of Day
Tomorrow will be .
, % of the Moon is Illuminated

Today's Extremes

State Highs State Lows

Community

WunderPhotos

Category 6

Welcome to Category 6. This is the collective home for Weather Underground's featured writeups by Dr. Jeff Masters (right), Bob Henson (left), Chris Burt, and other regular contributors.

Nearby

Air Quality

  Air Quality AQ Index Pollutant
Not available.

Snow Depth

Station Depth Elevation

Earthquake Activity

City Distance Mag. Time & Date
Minimum magnitude displayed is 2.5.

Coastal Water Temperatures

Place Temperature

Stations

Nearby Weather Stations

Station Location Temp. Windchill Dew Point Humidity Wind Precip. Elev Updated Type
                   

Watches & Warnings

There are currently no watches in effect.